sensor_id;sensor_type;location;lat;lon;timestamp;temperature;humidity
10903;DHT22;5504;47.312;11.060;2023-07-13T00:01:47;19.70;99.90
10903;DHT22;5504;47.312;11.060;2023-07-13T00:04:16;19.60;99.90
10903;DHT22;5504;47.312;11.060;2023-07-13T00:06:43;19.60;99.90
10903;DHT22;5504;47.312;11.060;2023-07-13T00:09:12;19.50;99.90
10903;DHT22;5504;47.312;11.060;2023-07-13T00:11:39;19.50;99.90
10903;DHT22;5504;47.312;11.060;2023-07-13T00:14:05;19.50;99.90
10903;DHT22;5504;47.312;11.060;2023-07-13T00:16:32;19.60;99.90
10903;DHT22;5504;47.312;11.060;2023-07-13T00:18:58;19.60;99.90
10903;DHT22;5504;47.312;11.060;2023-07-13T00:21:26;19.60;99.90
10903;DHT22;5504;47.312;11.060;2023-07-13T00:23:51;19.70;99.90
10903;DHT22;5504;47.312;11.060;2023-07-13T00:26:17;19.70;99.90
10903;DHT22;5504;47.312;11.060;2023-07-13T00:28:43;19.70;99.90
10903;DHT22;5504;47.312;11.060;2023-07-13T00:31:10;19.70;99.90
10903;DHT22;5504;47.312;11.060;2023-07-13T00:33:36;19.80;99.90
10903;DHT22;5504;47.312;11.060;2023-07-13T00:36:03;19.70;99.80
10903;DHT22;5504;47.312;11.060;2023-07-13T00:38:29;19.70;99.80
10903;DHT22;5504;47.312;11.060;2023-07-13T00:40:55;19.60;99.80
10903;DHT22;5504;47.312;11.060;2023-07-13T00:43:22;19.70;99.90
10903;DHT22;5504;47.312;11.060;2023-07-13T00:48:17;19.70;99.70
10903;DHT22;5504;47.312;11.060;2023-07-13T00:50:48;19.50;99.50
10903;DHT22;5504;47.312;11.060;2023-07-13T00:53:15;19.70;99.70
10903;DHT22;5504;47.312;11.060;2023-07-13T00:55:40;19.80;99.30
10903;DHT22;5504;47.312;11.060;2023-07-13T00:58:06;19.80;99.40
10903;DHT22;5504;47.312;11.060;2023-07-13T01:00:35;19.90;99.30
10903;DHT22;5504;47.312;11.060;2023-07-13T01:03:03;19.90;99.40
10903;DHT22;5504;47.312;11.060;2023-07-13T01:05:31;19.80;99.40
10903;DHT22;5504;47.312;11.060;2023-07-13T01:07:59;19.80;99.60
10903;DHT22;5504;47.312;11.060;2023-07-13T01:10:26;19.90;99.60
10903;DHT22;5504;47.312;11.060;2023-07-13T01:12:53;19.90;99.60
10903;DHT22;5504;47.312;11.060;2023-07-13T01:15:41;19.90;99.70
10903;DHT22;5504;47.312;11.060;2023-07-13T01:18:14;19.90;99.40
10903;DHT22;5504;47.312;11.060;2023-07-13T01:20:41;19.90;99.30
10903;DHT22;5504;47.312;11.060;2023-07-13T01:23:09;19.90;99.50
10903;DHT22;5504;47.312;11.060;2023-07-13T01:25:37;19.90;99.40
10903;DHT22;5504;47.312;11.060;2023-07-13T01:28:04;19.90;99.50
10903;DHT22;5504;47.312;11.060;2023-07-13T01:30:30;19.90;99.60
10903;DHT22;5504;47.312;11.060;2023-07-13T01:32:58;19.90;99.80
10903;DHT22;5504;47.312;11.060;2023-07-13T01:35:24;19.80;99.60
10903;DHT22;5504;47.312;11.060;2023-07-13T01:37:52;19.90;99.60
10903;DHT22;5504;47.312;11.060;2023-07-13T01:40:18;19.80;99.30
10903;DHT22;5504;47.312;11.060;2023-07-13T01:42:44;19.90;99.50
10903;DHT22;5504;47.312;11.060;2023-07-13T01:45:10;19.90;99.60
10903;DHT22;5504;47.312;11.060;2023-07-13T01:47:35;19.90;99.50
10903;DHT22;5504;47.312;11.060;2023-07-13T01:50:01;20.00;99.00
10903;DHT22;5504;47.312;11.060;2023-07-13T01:52:27;20.00;98.20
10903;DHT22;5504;47.312;11.060;2023-07-13T01:54:52;19.90;98.50
10903;DHT22;5504;47.312;11.060;2023-07-13T01:57:18;19.90;98.70
10903;DHT22;5504;47.312;11.060;2023-07-13T01:59:44;19.80;98.70
10903;DHT22;5504;47.312;11.060;2023-07-13T02:02:09;19.70;98.70
10903;DHT22;5504;47.312;11.060;2023-07-13T02:04:36;19.60;99.10
10903;DHT22;5504;47.312;11.060;2023-07-13T02:07:02;19.60;99.40
10903;DHT22;5504;47.312;11.060;2023-07-13T02:09:28;19.60;99.60
10903;DHT22;5504;47.312;11.060;2023-07-13T02:11:53;19.50;99.60
10903;DHT22;5504;47.312;11.060;2023-07-13T02:14:19;19.60;99.80
10903;DHT22;5504;47.312;11.060;2023-07-13T02:16:45;19.60;99.50
10903;DHT22;5504;47.312;11.060;2023-07-13T02:19:10;19.60;99.30
10903;DHT22;5504;47.312;11.060;2023-07-13T02:21:36;19.50;99.40
10903;DHT22;5504;47.312;11.060;2023-07-13T02:24:02;19.50;99.90
10903;DHT22;5504;47.312;11.060;2023-07-13T02:26:27;19.50;99.60
10903;DHT22;5504;47.312;11.060;2023-07-13T02:28:53;19.50;99.40
10903;DHT22;5504;47.312;11.060;2023-07-13T02:31:19;19.50;99.60
10903;DHT22;5504;47.312;11.060;2023-07-13T02:33:45;19.40;99.30
10903;DHT22;5504;47.312;11.060;2023-07-13T02:36:12;19.40;99.50
10903;DHT22;5504;47.312;11.060;2023-07-13T02:38:39;19.50;99.60
10903;DHT22;5504;47.312;11.060;2023-07-13T02:41:06;19.50;99.50
10903;DHT22;5504;47.312;11.060;2023-07-13T02:43:33;19.60;99.30
10903;DHT22;5504;47.312;11.060;2023-07-13T02:46:00;19.60;99.20
10903;DHT22;5504;47.312;11.060;2023-07-13T02:48:35;19.70;99.10
10903;DHT22;5504;47.312;11.060;2023-07-13T02:51:01;19.70;99.10
10903;DHT22;5504;47.312;11.060;2023-07-13T02:53:27;19.70;99.00
10903;DHT22;5504;47.312;11.060;2023-07-13T02:55:53;19.60;98.80
10903;DHT22;5504;47.312;11.060;2023-07-13T02:58:18;19.50;98.80
10903;DHT22;5504;47.312;11.060;2023-07-13T03:00:45;19.50;99.20
10903;DHT22;5504;47.312;11.060;2023-07-13T03:03:12;19.50;99.40
10903;DHT22;5504;47.312;11.060;2023-07-13T03:05:41;19.50;99.40
10903;DHT22;5504;47.312;11.060;2023-07-13T03:08:08;19.50;99.30
10903;DHT22;5504;47.312;11.060;2023-07-13T03:10:35;19.50;99.30
10903;DHT22;5504;47.312;11.060;2023-07-13T03:13:00;19.50;99.30
10903;DHT22;5504;47.312;11.060;2023-07-13T03:15:26;19.50;99.40
10903;DHT22;5504;47.312;11.060;2023-07-13T03:17:52;19.50;99.40
10903;DHT22;5504;47.312;11.060;2023-07-13T03:20:18;19.50;99.40
10903;DHT22;5504;47.312;11.060;2023-07-13T03:22:44;19.40;99.20
10903;DHT22;5504;47.312;11.060;2023-07-13T03:25:10;19.40;99.50
10903;DHT22;5504;47.312;11.060;2023-07-13T03:27:37;19.50;99.50
10903;DHT22;5504;47.312;11.060;2023-07-13T03:30:06;19.50;99.10
10903;DHT22;5504;47.312;11.060;2023-07-13T03:32:32;19.50;99.00
10903;DHT22;5504;47.312;11.060;2023-07-13T03:34:58;19.40;99.20
10903;DHT22;5504;47.312;11.060;2023-07-13T03:37:24;19.40;99.30
10903;DHT22;5504;47.312;11.060;2023-07-13T03:39:49;19.40;99.20
10903;DHT22;5504;47.312;11.060;2023-07-13T03:42:15;19.40;99.30
10903;DHT22;5504;47.312;11.060;2023-07-13T03:44:42;19.40;99.50
10903;DHT22;5504;47.312;11.060;2023-07-13T03:47:07;19.40;99.70
10903;DHT22;5504;47.312;11.060;2023-07-13T03:49:34;19.30;99.70
10903;DHT22;5504;47.312;11.060;2023-07-13T03:52:00;19.30;99.70
10903;DHT22;5504;47.312;11.060;2023-07-13T03:54:26;19.30;99.60
10903;DHT22;5504;47.312;11.060;2023-07-13T03:56:52;19.30;99.60
10903;DHT22;5504;47.312;11.060;2023-07-13T03:59:18;19.20;99.60
10903;DHT22;5504;47.312;11.060;2023-07-13T04:01:44;19.30;99.90
10903;DHT22;5504;47.312;11.060;2023-07-13T04:04:10;19.20;99.50
10903;DHT22;5504;47.312;11.060;2023-07-13T04:06:36;19.20;99.60
10903;DHT22;5504;47.312;11.060;2023-07-13T04:09:04;19.30;99.90
10903;DHT22;5504;47.312;11.060;2023-07-13T04:11:34;19.40;99.80
10903;DHT22;5504;47.312;11.060;2023-07-13T04:14:02;19.40;99.80
10903;DHT22;5504;47.312;11.060;2023-07-13T04:16:28;19.40;99.60
10903;DHT22;5504;47.312;11.060;2023-07-13T04:18:55;19.40;99.60
10903;DHT22;5504;47.312;11.060;2023-07-13T04:21:28;19.40;99.40
10903;DHT22;5504;47.312;11.060;2023-07-13T04:23:54;19.30;99.50
10903;DHT22;5504;47.312;11.060;2023-07-13T04:26:20;19.30;99.60
10903;DHT22;5504;47.312;11.060;2023-07-13T04:28:47;19.40;99.90
10903;DHT22;5504;47.312;11.060;2023-07-13T04:31:13;19.40;99.90
10903;DHT22;5504;47.312;11.060;2023-07-13T04:33:39;19.40;99.80
10903;DHT22;5504;47.312;11.060;2023-07-13T04:36:05;19.40;99.80
10903;DHT22;5504;47.312;11.060;2023-07-13T04:38:31;19.40;99.90
10903;DHT22;5504;47.312;11.060;2023-07-13T04:41:03;19.40;99.90
10903;DHT22;5504;47.312;11.060;2023-07-13T04:43:30;19.50;99.90
10903;DHT22;5504;47.312;11.060;2023-07-13T04:45:56;19.50;99.90
10903;DHT22;5504;47.312;11.060;2023-07-13T04:48:22;19.50;99.90
10903;DHT22;5504;47.312;11.060;2023-07-13T04:50:55;19.50;99.90
10903;DHT22;5504;47.312;11.060;2023-07-13T04:53:21;19.50;99.90
10903;DHT22;5504;47.312;11.060;2023-07-13T04:55:46;19.50;99.90
10903;DHT22;5504;47.312;11.060;2023-07-13T04:58:12;19.60;99.90
10903;DHT22;5504;47.312;11.060;2023-07-13T05:00:39;19.60;99.90
10903;DHT22;5504;47.312;11.060;2023-07-13T05:03:04;19.50;99.50
10903;DHT22;5504;47.312;11.060;2023-07-13T05:05:30;19.60;99.20
10903;DHT22;5504;47.312;11.060;2023-07-13T05:07:56;19.60;98.60
10903;DHT22;5504;47.312;11.060;2023-07-13T05:10:21;19.60;98.00
10903;DHT22;5504;47.312;11.060;2023-07-13T05:12:48;19.60;97.90
10903;DHT22;5504;47.312;11.060;2023-07-13T05:15:13;19.60;97.90
10903;DHT22;5504;47.312;11.060;2023-07-13T05:17:39;19.60;98.10
10903;DHT22;5504;47.312;11.060;2023-07-13T05:20:07;19.70;98.20
10903;DHT22;5504;47.312;11.060;2023-07-13T05:22:33;19.90;98.20
10903;DHT22;5504;47.312;11.060;2023-07-13T05:25:01;19.90;97.40
10903;DHT22;5504;47.312;11.060;2023-07-13T05:27:27;19.50;97.80
10903;DHT22;5504;47.312;11.060;2023-07-13T05:29:52;19.60;98.10
10903;DHT22;5504;47.312;11.060;2023-07-13T05:32:18;19.60;98.10
10903;DHT22;5504;47.312;11.060;2023-07-13T05:34:44;19.60;97.90
10903;DHT22;5504;47.312;11.060;2023-07-13T05:37:10;19.60;98.00
10903;DHT22;5504;47.312;11.060;2023-07-13T05:39:35;19.60;98.10
10903;DHT22;5504;47.312;11.060;2023-07-13T05:42:02;19.50;98.20
10903;DHT22;5504;47.312;11.060;2023-07-13T05:44:27;19.60;98.70
10903;DHT22;5504;47.312;11.060;2023-07-13T05:46:53;19.60;98.60
10903;DHT22;5504;47.312;11.060;2023-07-13T05:49:21;19.70;99.00
10903;DHT22;5504;47.312;11.060;2023-07-13T05:51:47;19.70;99.00
10903;DHT22;5504;47.312;11.060;2023-07-13T05:54:12;19.80;99.50
10903;DHT22;5504;47.312;11.060;2023-07-13T05:56:38;19.90;99.50
10903;DHT22;5504;47.312;11.060;2023-07-13T05:59:04;20.00;99.40
10903;DHT22;5504;47.312;11.060;2023-07-13T06:01:30;20.20;99.20
10903;DHT22;5504;47.312;11.060;2023-07-13T06:03:56;20.40;98.50
10903;DHT22;5504;47.312;11.060;2023-07-13T06:06:22;20.40;98.00
10903;DHT22;5504;47.312;11.060;2023-07-13T06:08:48;20.50;97.80
10903;DHT22;5504;47.312;11.060;2023-07-13T06:11:16;20.50;97.20
10903;DHT22;5504;47.312;11.060;2023-07-13T06:13:42;20.50;96.90
10903;DHT22;5504;47.312;11.060;2023-07-13T06:16:09;20.70;96.80
10903;DHT22;5504;47.312;11.060;2023-07-13T06:18:35;20.70;96.30
10903;DHT22;5504;47.312;11.060;2023-07-13T06:21:13;20.90;96.60
10903;DHT22;5504;47.312;11.060;2023-07-13T06:23:39;20.90;96.70
10903;DHT22;5504;47.312;11.060;2023-07-13T06:26:06;20.90;96.70
10903;DHT22;5504;47.312;11.060;2023-07-13T06:28:32;20.80;96.50
10903;DHT22;5504;47.312;11.060;2023-07-13T06:30:58;20.70;96.10
10903;DHT22;5504;47.312;11.060;2023-07-13T06:33:25;20.70;96.90
10903;DHT22;5504;47.312;11.060;2023-07-13T06:35:51;20.80;96.90
10903;DHT22;5504;47.312;11.060;2023-07-13T06:38:17;20.90;97.00
10903;DHT22;5504;47.312;11.060;2023-07-13T06:40:43;20.90;96.80
10903;DHT22;5504;47.312;11.060;2023-07-13T06:43:08;21.00;96.90
10903;DHT22;5504;47.312;11.060;2023-07-13T06:45:45;21.10;96.40
10903;DHT22;5504;47.312;11.060;2023-07-13T06:48:13;21.00;95.30
10903;DHT22;5504;47.312;11.060;2023-07-13T06:50:39;20.80;95.50
10903;DHT22;5504;47.312;11.060;2023-07-13T06:53:04;20.70;95.80
10903;DHT22;5504;47.312;11.060;2023-07-13T06:55:30;20.80;96.70
10903;DHT22;5504;47.312;11.060;2023-07-13T06:57:56;21.30;97.90
10903;DHT22;5504;47.312;11.060;2023-07-13T07:00:22;21.70;96.30
10903;DHT22;5504;47.312;11.060;2023-07-13T07:02:48;21.80;96.10
10903;DHT22;5504;47.312;11.060;2023-07-13T07:05:14;21.90;95.50
10903;DHT22;5504;47.312;11.060;2023-07-13T07:07:39;21.70;94.00
10903;DHT22;5504;47.312;11.060;2023-07-13T07:10:06;21.70;93.80
10903;DHT22;5504;47.312;11.060;2023-07-13T07:12:31;21.80;94.90
10903;DHT22;5504;47.312;11.060;2023-07-13T07:14:57;22.10;94.90
10903;DHT22;5504;47.312;11.060;2023-07-13T07:17:23;22.60;94.40
10903;DHT22;5504;47.312;11.060;2023-07-13T07:19:48;22.40;93.60
10903;DHT22;5504;47.312;11.060;2023-07-13T07:22:14;22.90;93.40
10903;DHT22;5504;47.312;11.060;2023-07-13T07:24:40;22.70;91.70
10903;DHT22;5504;47.312;11.060;2023-07-13T07:27:06;22.90;93.50
10903;DHT22;5504;47.312;11.060;2023-07-13T07:29:31;22.90;92.40
10903;DHT22;5504;47.312;11.060;2023-07-13T07:31:59;23.40;93.50
10903;DHT22;5504;47.312;11.060;2023-07-13T07:34:25;24.20;92.90
10903;DHT22;5504;47.312;11.060;2023-07-13T07:36:50;24.70;91.40
10903;DHT22;5504;47.312;11.060;2023-07-13T07:39:16;24.50;90.90
10903;DHT22;5504;47.312;11.060;2023-07-13T07:41:42;24.80;90.50
10903;DHT22;5504;47.312;11.060;2023-07-13T07:44:08;25.00;90.00
10903;DHT22;5504;47.312;11.060;2023-07-13T07:46:35;25.20;88.70
10903;DHT22;5504;47.312;11.060;2023-07-13T07:49:01;25.70;90.10
10903;DHT22;5504;47.312;11.060;2023-07-13T07:51:26;25.60;83.30
10903;DHT22;5504;47.312;11.060;2023-07-13T07:53:52;25.50;87.20
10903;DHT22;5504;47.312;11.060;2023-07-13T07:56:18;25.10;85.60
10903;DHT22;5504;47.312;11.060;2023-07-13T07:58:43;25.50;88.20
10903;DHT22;5504;47.312;11.060;2023-07-13T08:01:09;26.20;87.10
10903;DHT22;5504;47.312;11.060;2023-07-13T08:03:35;26.70;84.10
10903;DHT22;5504;47.312;11.060;2023-07-13T08:06:01;26.70;81.40
10903;DHT22;5504;47.312;11.060;2023-07-13T08:08:27;26.50;82.10
10903;DHT22;5504;47.312;11.060;2023-07-13T08:10:53;26.40;82.40
10903;DHT22;5504;47.312;11.060;2023-07-13T08:13:19;25.20;76.70
10903;DHT22;5504;47.312;11.060;2023-07-13T08:15:46;25.30;84.30
10903;DHT22;5504;47.312;11.060;2023-07-13T08:18:12;25.00;84.30
10903;DHT22;5504;47.312;11.060;2023-07-13T08:20:39;25.10;83.90
10903;DHT22;5504;47.312;11.060;2023-07-13T08:23:05;25.10;81.50
10903;DHT22;5504;47.312;11.060;2023-07-13T08:25:31;25.40;86.70
10903;DHT22;5504;47.312;11.060;2023-07-13T08:27:56;25.80;86.50
10903;DHT22;5504;47.312;11.060;2023-07-13T08:30:22;26.10;86.30
10903;DHT22;5504;47.312;11.060;2023-07-13T08:32:48;26.20;83.30
10903;DHT22;5504;47.312;11.060;2023-07-13T08:35:15;26.30;82.30
10903;DHT22;5504;47.312;11.060;2023-07-13T08:37:41;26.20;79.00
10903;DHT22;5504;47.312;11.060;2023-07-13T08:40:10;23.70;79.90
10903;DHT22;5504;47.312;11.060;2023-07-13T08:42:46;23.00;84.70
10903;DHT22;5504;47.312;11.060;2023-07-13T08:45:37;23.50;89.20
10903;DHT22;5504;47.312;11.060;2023-07-13T08:48:27;23.60;87.10
10903;DHT22;5504;47.312;11.060;2023-07-13T08:53:18;23.50;84.70
10903;DHT22;5504;47.312;11.060;2023-07-13T08:55:45;23.60;88.50
10903;DHT22;5504;47.312;11.060;2023-07-13T08:58:15;23.80;88.50
10903;DHT22;5504;47.312;11.060;2023-07-13T09:03:26;23.80;88.40
10903;DHT22;5504;47.312;11.060;2023-07-13T09:05:57;22.80;87.30
10903;DHT22;5504;47.312;11.060;2023-07-13T09:09:01;22.60;88.00
10903;DHT22;5504;47.312;11.060;2023-07-13T09:14:57;22.60;90.20
10903;DHT22;5504;47.312;11.060;2023-07-13T09:17:27;23.40;91.90
10903;DHT22;5504;47.312;11.060;2023-07-13T09:20:04;23.80;90.20
10903;DHT22;5504;47.312;11.060;2023-07-13T09:22:36;23.50;88.40
10903;DHT22;5504;47.312;11.060;2023-07-13T09:25:23;24.00;90.10
10903;DHT22;5504;47.312;11.060;2023-07-13T09:27:54;24.30;89.10
10903;DHT22;5504;47.312;11.060;2023-07-13T09:30:32;24.60;88.70
10903;DHT22;5504;47.312;11.060;2023-07-13T09:32:59;25.30;90.90
10903;DHT22;5504;47.312;11.060;2023-07-13T09:35:31;25.40;84.30
10903;DHT22;5504;47.312;11.060;2023-07-13T09:38:14;25.50;83.40
10903;DHT22;5504;47.312;11.060;2023-07-13T09:40:58;25.50;83.40
10903;DHT22;5504;47.312;11.060;2023-07-13T09:43:25;25.40;82.20
10903;DHT22;5504;47.312;11.060;2023-07-13T09:45:51;24.90;83.00
10903;DHT22;5504;47.312;11.060;2023-07-13T09:48:17;25.00;83.30
10903;DHT22;5504;47.312;11.060;2023-07-13T09:50:43;25.00;82.50
10903;DHT22;5504;47.312;11.060;2023-07-13T09:53:14;25.00;83.40
10903;DHT22;5504;47.312;11.060;2023-07-13T09:55:42;25.30;87.50
10903;DHT22;5504;47.312;11.060;2023-07-13T09:58:15;25.60;84.20
10903;DHT22;5504;47.312;11.060;2023-07-13T10:00:43;25.40;83.40
10903;DHT22;5504;47.312;11.060;2023-07-13T10:03:19;25.70;84.30
10903;DHT22;5504;47.312;11.060;2023-07-13T10:05:47;25.90;81.90
10903;DHT22;5504;47.312;11.060;2023-07-13T10:10:49;26.50;79.60
10903;DHT22;5504;47.312;11.060;2023-07-13T10:13:27;26.10;74.70
10903;DHT22;5504;47.312;11.060;2023-07-13T10:15:55;25.70;75.80
10903;DHT22;5504;47.312;11.060;2023-07-13T10:18:22;26.00;78.40
10903;DHT22;5504;47.312;11.060;2023-07-13T10:20:54;25.50;79.70
10903;DHT22;5504;47.312;11.060;2023-07-13T10:23:27;25.60;82.80
10903;DHT22;5504;47.312;11.060;2023-07-13T10:25:57;25.80;81.80
10903;DHT22;5504;47.312;11.060;2023-07-13T10:28:32;26.40;81.70
10903;DHT22;5504;47.312;11.060;2023-07-13T10:31:01;27.00;80.40
10903;DHT22;5504;47.312;11.060;2023-07-13T10:33:28;27.30;79.50
10903;DHT22;5504;47.312;11.060;2023-07-13T10:36:26;25.80;75.70
10903;DHT22;5504;47.312;11.060;2023-07-13T10:38:55;25.70;73.00
10903;DHT22;5504;47.312;11.060;2023-07-13T10:41:24;26.10;79.50
10903;DHT22;5504;47.312;11.060;2023-07-13T10:43:52;25.50;75.60
10903;DHT22;5504;47.312;11.060;2023-07-13T10:46:23;25.80;76.00
10903;DHT22;5504;47.312;11.060;2023-07-13T10:48:52;26.60;74.30
10903;DHT22;5504;47.312;11.060;2023-07-13T10:51:19;26.80;73.20
10903;DHT22;5504;47.312;11.060;2023-07-13T10:53:47;26.80;71.90
10903;DHT22;5504;47.312;11.060;2023-07-13T10:56:22;27.10;73.60
10903;DHT22;5504;47.312;11.060;2023-07-13T10:59:11;26.80;72.40
10903;DHT22;5504;47.312;11.060;2023-07-13T11:04:20;26.50;68.00
10903;DHT22;5504;47.312;11.060;2023-07-13T11:06:48;25.80;69.50
10903;DHT22;5504;47.312;11.060;2023-07-13T11:09:38;24.80;69.40
10903;DHT22;5504;47.312;11.060;2023-07-13T11:12:25;25.00;69.70
10903;DHT22;5504;47.312;11.060;2023-07-13T11:17:46;25.20;73.00
10903;DHT22;5504;47.312;11.060;2023-07-13T11:38:23;26.90;59.80
10903;DHT22;5504;47.312;11.060;2023-07-13T11:40:53;25.70;64.90
10903;DHT22;5504;47.312;11.060;2023-07-13T11:43:20;26.70;70.30
10903;DHT22;5504;47.312;11.060;2023-07-13T11:45:49;26.50;60.60
10903;DHT22;5504;47.312;11.060;2023-07-13T11:48:27;26.10;60.80
10903;DHT22;5504;47.312;11.060;2023-07-13T11:50:59;25.40;61.70
10903;DHT22;5504;47.312;11.060;2023-07-13T11:53:29;26.00;67.30
10903;DHT22;5504;47.312;11.060;2023-07-13T11:55:57;25.80;60.90
10903;DHT22;5504;47.312;11.060;2023-07-13T11:58:25;26.30;64.20
10903;DHT22;5504;47.312;11.060;2023-07-13T12:00:52;26.50;61.30
10903;DHT22;5504;47.312;11.060;2023-07-13T12:03:21;26.80;64.50
10903;DHT22;5504;47.312;11.060;2023-07-13T12:08:26;27.60;66.00
10903;DHT22;5504;47.312;11.060;2023-07-13T12:11:19;28.30;64.50
10903;DHT22;5504;47.312;11.060;2023-07-13T12:13:46;29.00;62.60
10903;DHT22;5504;47.312;11.060;2023-07-13T12:16:26;29.20;60.70
10903;DHT22;5504;47.312;11.060;2023-07-13T12:18:53;29.20;59.50
10903;DHT22;5504;47.312;11.060;2023-07-13T12:21:23;29.40;59.80
10903;DHT22;5504;47.312;11.060;2023-07-13T12:23:52;29.00;59.30
10903;DHT22;5504;47.312;11.060;2023-07-13T12:26:18;28.90;59.20
10903;DHT22;5504;47.312;11.060;2023-07-13T12:34:08;27.40;61.10
10903;DHT22;5504;47.312;11.060;2023-07-13T12:36:36;27.30;61.50
10903;DHT22;5504;47.312;11.060;2023-07-13T12:39:32;27.10;62.90
10903;DHT22;5504;47.312;11.060;2023-07-13T12:42:28;27.00;62.40
10903;DHT22;5504;47.312;11.060;2023-07-13T12:45:02;26.80;68.00
10903;DHT22;5504;47.312;11.060;2023-07-13T12:47:30;26.30;71.50
10903;DHT22;5504;47.312;11.060;2023-07-13T12:49:59;26.30;73.90
10903;DHT22;5504;47.312;11.060;2023-07-13T12:52:33;26.10;73.30
10903;DHT22;5504;47.312;11.060;2023-07-13T12:55:06;25.90;73.90
10903;DHT22;5504;47.312;11.060;2023-07-13T12:57:55;25.80;71.00
10903;DHT22;5504;47.312;11.060;2023-07-13T13:00:48;25.60;71.10
10903;DHT22;5504;47.312;11.060;2023-07-13T13:05:46;25.70;71.90
10903;DHT22;5504;47.312;11.060;2023-07-13T13:08:12;25.50;73.40
10903;DHT22;5504;47.312;11.060;2023-07-13T13:10:38;25.50;71.30
10903;DHT22;5504;47.312;11.060;2023-07-13T13:13:04;25.10;71.30
10903;DHT22;5504;47.312;11.060;2023-07-13T13:15:30;25.10;72.40
10903;DHT22;5504;47.312;11.060;2023-07-13T13:17:56;25.00;72.60
10903;DHT22;5504;47.312;11.060;2023-07-13T13:20:24;25.10;73.40
10903;DHT22;5504;47.312;11.060;2023-07-13T13:22:51;25.40;74.20
10903;DHT22;5504;47.312;11.060;2023-07-13T13:25:18;25.60;74.70
10903;DHT22;5504;47.312;11.060;2023-07-13T13:27:45;26.00;74.70
10903;DHT22;5504;47.312;11.060;2023-07-13T13:30:16;26.00;71.80
10903;DHT22;5504;47.312;11.060;2023-07-13T13:32:44;25.60;70.70
10903;DHT22;5504;47.312;11.060;2023-07-13T13:35:15;25.30;70.80
10903;DHT22;5504;47.312;11.060;2023-07-13T13:37:41;25.10;71.50
10903;DHT22;5504;47.312;11.060;2023-07-13T13:40:20;24.80;73.00
10903;DHT22;5504;47.312;11.060;2023-07-13T13:42:46;24.60;72.60
10903;DHT22;5504;47.312;11.060;2023-07-13T13:45:13;24.00;72.40
10903;DHT22;5504;47.312;11.060;2023-07-13T13:47:39;23.80;73.60
10903;DHT22;5504;47.312;11.060;2023-07-13T13:50:21;23.60;75.00
10903;DHT22;5504;47.312;11.060;2023-07-13T13:52:50;23.60;74.80
10903;DHT22;5504;47.312;11.060;2023-07-13T13:55:21;23.40;76.10
10903;DHT22;5504;47.312;11.060;2023-07-13T13:57:49;23.30;76.30
10903;DHT22;5504;47.312;11.060;2023-07-13T14:00:16;23.30;76.10
10903;DHT22;5504;47.312;11.060;2023-07-13T14:02:45;23.10;76.10
10903;DHT22;5504;47.312;11.060;2023-07-13T14:05:20;22.90;76.60
10903;DHT22;5504;47.312;11.060;2023-07-13T14:07:46;22.70;77.40
10903;DHT22;5504;47.312;11.060;2023-07-13T14:10:15;22.60;79.20
10903;DHT22;5504;47.312;11.060;2023-07-13T14:12:43;22.60;80.00
10903;DHT22;5504;47.312;11.060;2023-07-13T14:15:23;22.50;82.20
10903;DHT22;5504;47.312;11.060;2023-07-13T14:17:49;22.50;83.90
10903;DHT22;5504;47.312;11.060;2023-07-13T14:20:19;22.50;86.90
10903;DHT22;5504;47.312;11.060;2023-07-13T14:22:46;22.40;87.30
10903;DHT22;5504;47.312;11.060;2023-07-13T14:25:13;22.30;89.50
10903;DHT22;5504;47.312;11.060;2023-07-13T14:27:40;22.40;90.10
10903;DHT22;5504;47.312;11.060;2023-07-13T14:30:17;22.30;90.00
10903;DHT22;5504;47.312;11.060;2023-07-13T14:32:43;22.30;89.40
10903;DHT22;5504;47.312;11.060;2023-07-13T14:35:14;22.20;89.60
10903;DHT22;5504;47.312;11.060;2023-07-13T14:37:41;22.20;89.80
10903;DHT22;5504;47.312;11.060;2023-07-13T14:40:25;22.30;88.70
10903;DHT22;5504;47.312;11.060;2023-07-13T14:42:51;22.30;89.10
10903;DHT22;5504;47.312;11.060;2023-07-13T14:45:19;22.50;88.00
10903;DHT22;5504;47.312;11.060;2023-07-13T14:47:46;22.50;89.60
10903;DHT22;5504;47.312;11.060;2023-07-13T14:50:20;22.70;88.20
10903;DHT22;5504;47.312;11.060;2023-07-13T14:52:47;22.70;89.90
10903;DHT22;5504;47.312;11.060;2023-07-13T14:55:14;22.80;87.10
10903;DHT22;5504;47.312;11.060;2023-07-13T14:57:41;23.00;88.00
10903;DHT22;5504;47.312;11.060;2023-07-13T15:00:14;23.10;87.30
10903;DHT22;5504;47.312;11.060;2023-07-13T15:02:43;23.00;85.40
10903;DHT22;5504;47.312;11.060;2023-07-13T15:05:20;23.30;87.10
10903;DHT22;5504;47.312;11.060;2023-07-13T15:07:48;23.20;84.70
10903;DHT22;5504;47.312;11.060;2023-07-13T15:10:19;23.40;84.10
10903;DHT22;5504;47.312;11.060;2023-07-13T15:12:45;23.40;84.50
10903;DHT22;5504;47.312;11.060;2023-07-13T15:15:11;23.40;83.70
10903;DHT22;5504;47.312;11.060;2023-07-13T15:17:39;23.30;83.10
10903;DHT22;5504;47.312;11.060;2023-07-13T15:22:51;23.30;84.40
10903;DHT22;5504;47.312;11.060;2023-07-13T15:25:22;23.30;83.90
10903;DHT22;5504;47.312;11.060;2023-07-13T15:27:50;23.40;84.70
10903;DHT22;5504;47.312;11.060;2023-07-13T15:30:16;23.20;85.40
10903;DHT22;5504;47.312;11.060;2023-07-13T15:32:43;23.20;83.10
10903;DHT22;5504;47.312;11.060;2023-07-13T15:35:16;23.30;84.20
10903;DHT22;5504;47.312;11.060;2023-07-13T15:37:43;23.60;83.60
10903;DHT22;5504;47.312;11.060;2023-07-13T15:40:10;23.70;81.20
10903;DHT22;5504;47.312;11.060;2023-07-13T15:42:37;23.50;81.40
10903;DHT22;5504;47.312;11.060;2023-07-13T15:47:40;23.40;81.40
10903;DHT22;5504;47.312;11.060;2023-07-13T15:50:15;23.40;79.70
10903;DHT22;5504;47.312;11.060;2023-07-13T15:52:42;23.30;80.10
10903;DHT22;5504;47.312;11.060;2023-07-13T15:55:12;23.20;81.40
10903;DHT22;5504;47.312;11.060;2023-07-13T15:57:39;23.10;81.90
10903;DHT22;5504;47.312;11.060;2023-07-13T16:00:27;23.00;83.20
10903;DHT22;5504;47.312;11.060;2023-07-13T16:02:53;22.80;81.80
10903;DHT22;5504;47.312;11.060;2023-07-13T16:05:21;22.80;83.70
10903;DHT22;5504;47.312;11.060;2023-07-13T16:07:48;22.70;85.50
10903;DHT22;5504;47.312;11.060;2023-07-13T16:10:26;22.70;83.80
10903;DHT22;5504;47.312;11.060;2023-07-13T16:12:54;22.60;85.00
10903;DHT22;5504;47.312;11.060;2023-07-13T16:15:21;22.60;83.70
10903;DHT22;5504;47.312;11.060;2023-07-13T16:17:48;22.70;84.00
10903;DHT22;5504;47.312;11.060;2023-07-13T16:20:15;22.70;86.80
10903;DHT22;5504;47.312;11.060;2023-07-13T16:22:45;22.50;82.60
10903;DHT22;5504;47.312;11.060;2023-07-13T16:25:25;22.70;84.00
10903;DHT22;5504;47.312;11.060;2023-07-13T16:27:53;22.80;83.90
10903;DHT22;5504;47.312;11.060;2023-07-13T16:30:22;22.80;82.80
10903;DHT22;5504;47.312;11.060;2023-07-13T16:32:51;22.90;81.60